Bowling Green Warren County Regional Airport
KBWG : now visible

Airfield :











YOU CAN JOIN US ON...

 
LOGIN :

Register | Disclaimer

   EN    FR    IT 

 









Legend :    VFR   Marginal VFR   IFR   Intensive IFR   Very Intensive IFR
Visi :
Ceiling :
>= 8 km
>= 3000ft
5 to 8 km
1000 to 3000 ft
1500m to 5 km
500 to 1000 ft
800 to 1500m
200 to 500 ft
< 800m
< 200 ft
Symbols :   Thunderstorms  Fog  Heavy snow  Heavy precipitations  Wind > 20 kt







- Airport Elevation : 547 ft


KBWG - Bowling Green Warren County Regional

CURRENT METAR :
  • 212153Z AUTO 20008KT 10SM CLR 32/11 A3016 RMK AO2 SLP207 T03170111

EXPIRED METARs :
  • 212053Z AUTO 18008KT 10SM CLR 32/12 A3017 RMK AO2 SLP209 T03220122 56022
  • 211953Z AUTO 22009KT 10SM CLR 32/13 A3019 RMK AO2 SLP215 T03170133

TAF KBWG
Valid from the 21 at 18:00 until the 22 at 18:00 UTC


211720Z 2118/2218 20010KT P6SM SKC
FM220200 VRB03KT P6SM SKC
FM221500 20015G23KT P6SM SKC
No reported NOTAMs for that airfield.



MET'MAP, your aeronautical weather chart ! - Copyright ORBIFLY December 2007 - Disclaimer

ORBIFLY MET'MAP TEAM :

Programming & Development : Alexandra Zaïnal
Concept & Development : Baudouin d'Aumeries
Co-Development & Prog : Marc-Olivier Méhu
Technical & hardware support : Manuel Goepfert

Contact : metmap@orbifly.com




SOURCES & CREDITS :

   NOAA       Earth
Advisory